Time;durP1;ratioP1;P1;durP2;ratioP2;P2;SDS_P1;SDS_P2;PMS_P1;PMS_P2;Temp;Humidity;BMP_temperature;BMP_pressure;BME280_temperature;BME280_humidity;BME280_pressure;Samples;Min_cycle;Max_cycle;Signal;HPM_P1;HPM_P2
2022/04/10 00:01:49;;;;;;;8.83;2.93;;;;;;;;;;5281591;28;20062;-68
2022/04/10 00:04:21;;;;;;;7.33;2.77;;;;;;;;;;5281195;28;20078;-68
2022/04/10 00:06:53;;;;;;;7.20;2.87;;;;;;;;;;5281881;28;20387;-68
2022/04/10 00:09:24;;;;;;;7.42;3.64;;;;;;;;;;5280857;28;20025;-68
2022/04/10 00:11:55;;;;;;;9.75;3.25;;;;;;;;;;5282146;28;20013;-68
2022/04/10 00:14:26;;;;;;;10.00;3.30;;;;;;;;;;5281056;28;20041;-69
2022/04/10 00:16:57;;;;;;;8.63;2.70;;;;;;;;;;5281227;28;20050;-68
2022/04/10 00:19:29;;;;;;;15.27;3.70;;;;;;;;;;5281127;28;20021;-68
2022/04/10 00:22:00;;;;;;;12.60;3.70;;;;;;;;;;5281847;28;20023;-68
2022/04/10 00:24:31;;;;;;;11.50;3.80;;;;;;;;;;5280423;28;20024;-68
2022/04/10 00:27:02;;;;;;;7.00;3.43;;;;;;;;;;5281546;28;20020;-69
2022/04/10 00:29:33;;;;;;;10.23;3.90;;;;;;;;;;5281251;28;20016;-69
2022/04/10 00:32:05;;;;;;;11.88;3.98;;;;;;;;;;5280901;28;20036;-69
2022/04/10 00:34:36;;;;;;;10.47;3.67;;;;;;;;;;5281448;28;20082;-69
2022/04/10 00:37:07;;;;;;;8.23;3.57;;;;;;;;;;5281730;28;20024;-69
2022/04/10 00:39:38;;;;;;;8.88;4.07;;;;;;;;;;5280290;28;20131;-69
2022/04/10 00:42:09;;;;;;;14.67;4.33;;;;;;;;;;5283572;28;20032;-69
2022/04/10 00:44:41;;;;;;;9.70;4.35;;;;;;;;;;5284458;28;20027;-69
2022/04/10 00:47:12;;;;;;;11.13;4.50;;;;;;;;;;5285827;28;20088;-69
2022/04/10 00:49:43;;;;;;;8.93;4.07;;;;;;;;;;5285151;28;20016;-69
2022/04/10 00:52:14;;;;;;;11.13;4.33;;;;;;;;;;5285024;28;20012;-69
2022/04/10 00:54:45;;;;;;;10.94;4.78;;;;;;;;;;5285034;28;20039;-69
2022/04/10 00:57:17;;;;;;;12.50;4.92;;;;;;;;;;5285788;28;20019;-69
2022/04/10 00:59:48;;;;;;;9.57;4.00;;;;;;;;;;5284235;28;20032;-69
2022/04/10 01:02:19;;;;;;;14.87;5.10;;;;;;;;;;5285389;28;20044;-69
2022/04/10 01:04:51;;;;;;;10.83;5.43;;;;;;;;;;5284882;28;20036;-69
2022/04/10 01:07:22;;;;;;;12.77;5.47;;;;;;;;;;5284025;28;20432;-69
2022/04/10 01:09:53;;;;;;;12.93;6.63;;;;;;;;;;5285429;28;20364;-70
2022/04/10 01:12:25;;;;;;;10.73;5.40;;;;;;;;;;5284598;28;20017;-69
2022/04/10 01:14:56;;;;;;;12.53;5.37;;;;;;;;;;5284449;28;20032;-69
2022/04/10 01:17:28;;;;;;;10.53;5.17;;;;;;;;;;5284578;28;20028;-69
2022/04/10 01:20:00;;;;;;;10.63;5.50;;;;;;;;;;5283976;28;20101;-69
2022/04/10 01:22:35;;;;;;;14.40;5.83;;;;;;;;;;5284697;28;20099;-69
2022/04/10 01:25:07;;;;;;;12.50;5.73;;;;;;;;;;5284820;28;20126;-69
2022/04/10 01:27:39;;;;;;;9.47;5.77;;;;;;;;;;5283340;28;20040;-69
2022/04/10 01:30:11;;;;;;;15.80;5.80;;;;;;;;;;5284639;28;20455;-69
2022/04/10 01:32:42;;;;;;;11.83;5.33;;;;;;;;;;5284023;28;20046;-70
2022/04/10 01:35:14;;;;;;;11.13;6.50;;;;;;;;;;5283891;28;20404;-69
2022/04/10 01:37:45;;;;;;;13.30;6.00;;;;;;;;;;5283916;28;20055;-71
2022/04/10 01:40:16;;;;;;;11.63;5.77;;;;;;;;;;5284370;28;20028;-70
2022/04/10 01:42:47;;;;;;;9.05;4.97;;;;;;;;;;5283222;28;20483;-70
2022/04/10 01:45:18;;;;;;;14.85;5.85;;;;;;;;;;5284490;28;20027;-69
2022/04/10 01:47:53;;;;;;;9.90;6.23;;;;;;;;;;5283546;28;20025;-70
2022/04/10 01:50:24;;;;;;;11.47;6.20;;;;;;;;;;5284121;28;20020;-70
2022/04/10 01:52:55;;;;;;;10.83;5.70;;;;;;;;;;5283676;28;20027;-67
2022/04/10 01:55:26;;;;;;;8.68;5.65;;;;;;;;;;5283014;28;20016;-70
2022/04/10 01:57:57;;;;;;;13.53;6.03;;;;;;;;;;5284527;28;20066;-70
2022/04/10 02:00:29;;;;;;;10.68;5.98;;;;;;;;;;5283652;28;20038;-70
2022/04/10 02:03:00;;;;;;;13.96;6.12;;;;;;;;;;5283547;28;20017;-69
2022/04/10 02:05:31;;;;;;;10.35;5.80;;;;;;;;;;5283755;28;20021;-70
2022/04/10 02:08:02;;;;;;;12.40;5.72;;;;;;;;;;5284312;28;20103;-70
2022/04/10 02:10:34;;;;;;;13.08;7.40;;;;;;;;;;5283006;28;20016;-70
2022/04/10 02:13:07;;;;;;;12.23;7.10;;;;;;;;;;5283595;28;20045;-70
2022/04/10 02:15:39;;;;;;;11.43;6.23;;;;;;;;;;5283523;28;20035;-70
2022/04/10 02:18:10;;;;;;;15.57;6.43;;;;;;;;;;5283091;28;20017;-70
2022/04/10 02:20:41;;;;;;;13.57;6.47;;;;;;;;;;5283187;28;20411;-68
2022/04/10 02:23:12;;;;;;;11.13;6.43;;;;;;;;;;5283213;28;20534;-68
2022/04/10 02:25:44;;;;;;;11.52;6.54;;;;;;;;;;5283261;28;20082;-68
2022/04/10 02:28:15;;;;;;;11.23;6.25;;;;;;;;;;5283236;28;20436;-68
2022/04/10 02:30:46;;;;;;;12.87;6.23;;;;;;;;;;5281911;28;20063;-69
2022/04/10 02:33:17;;;;;;;12.77;6.28;;;;;;;;;;5283875;28;20447;-69
2022/04/10 02:35:48;;;;;;;12.10;5.72;;;;;;;;;;5283051;28;20035;-69
2022/04/10 02:38:19;;;;;;;11.87;6.77;;;;;;;;;;5282466;28;20025;-68
2022/04/10 02:40:51;;;;;;;12.57;6.45;;;;;;;;;;5283166;28;20031;-68
2022/04/10 02:43:22;;;;;;;10.77;5.87;;;;;;;;;;5282893;28;20044;-68
2022/04/10 02:45:53;;;;;;;13.57;6.55;;;;;;;;;;5282808;28;20434;-70
2022/04/10 02:48:24;;;;;;;15.53;5.80;;;;;;;;;;5282903;28;20017;-68
2022/04/10 02:50:55;;;;;;;11.90;7.03;;;;;;;;;;5283142;28;20116;-68
2022/04/10 02:53:26;;;;;;;11.72;6.56;;;;;;;;;;5281714;28;20016;-68
2022/04/10 02:55:58;;;;;;;12.60;6.97;;;;;;;;;;5282990;28;20030;-68
2022/04/10 02:58:29;;;;;;;15.80;6.63;;;;;;;;;;5281414;28;20021;-68
2022/04/10 03:01:00;;;;;;;13.13;6.93;;;;;;;;;;5283236;28;20017;-68
2022/04/10 03:03:31;;;;;;;9.44;6.20;;;;;;;;;;5282449;28;20024;-68
2022/04/10 03:06:03;;;;;;;12.52;6.32;;;;;;;;;;5281206;28;20028;-68
2022/04/10 03:08:34;;;;;;;10.40;6.13;;;;;;;;;;5282562;28;20031;-70
2022/04/10 03:11:05;;;;;;;11.10;6.10;;;;;;;;;;5283070;28;20470;-68
2022/04/10 03:13:36;;;;;;;11.47;7.17;;;;;;;;;;5281332;28;20051;-68
2022/04/10 03:16:08;;;;;;;13.66;7.76;;;;;;;;;;5282849;28;20028;-68
2022/04/10 03:18:39;;;;;;;12.77;7.00;;;;;;;;;;5281972;28;20032;-68
2022/04/10 03:21:10;;;;;;;11.53;6.83;;;;;;;;;;5281963;28;20016;-69
2022/04/10 03:23:41;;;;;;;12.96;6.68;;;;;;;;;;5282055;28;20356;-69
2022/04/10 03:26:12;;;;;;;13.23;8.25;;;;;;;;;;5282663;28;20030;-69
2022/04/10 03:28:43;;;;;;;13.35;7.13;;;;;;;;;;5281188;28;20490;-69
2022/04/10 03:31:14;;;;;;;13.15;7.30;;;;;;;;;;5282345;28;20013;-69
2022/04/10 03:33:46;;;;;;;13.66;6.70;;;;;;;;;;5281245;28;20024;-69
2022/04/10 03:36:17;;;;;;;12.40;6.70;;;;;;;;;;5282446;28;20100;-69
2022/04/10 03:38:48;;;;;;;10.27;6.83;;;;;;;;;;5281550;28;20017;-69
2022/04/10 03:41:20;;;;;;;13.10;7.07;;;;;;;;;;5281257;28;20020;-69
2022/04/10 03:43:51;;;;;;;10.50;7.40;;;;;;;;;;5281800;28;20021;-69
2022/04/10 03:46:22;;;;;;;13.82;6.76;;;;;;;;;;5281682;28;20027;-69
2022/04/10 03:48:53;;;;;;;11.70;7.32;;;;;;;;;;5281617;28;20074;-69
2022/04/10 03:51:24;;;;;;;12.25;7.00;;;;;;;;;;5281464;28;20024;-69
2022/04/10 03:53:55;;;;;;;16.47;7.03;;;;;;;;;;5282117;28;20486;-69
2022/04/10 03:56:26;;;;;;;14.64;7.04;;;;;;;;;;5280902;28;20078;-67
2022/04/10 03:58:58;;;;;;;14.68;7.57;;;;;;;;;;5281935;28;20078;-68
2022/04/10 04:01:29;;;;;;;11.67;7.77;;;;;;;;;;5280521;28;20379;-68
2022/04/10 04:04:00;;;;;;;12.30;7.78;;;;;;;;;;5281926;28;20023;-68
2022/04/10 04:06:31;;;;;;;15.27;7.57;;;;;;;;;;5281257;28;20490;-70
2022/04/10 04:09:03;;;;;;;15.30;6.47;;;;;;;;;;5281338;28;20024;-69
2022/04/10 04:11:34;;;;;;;12.60;7.37;;;;;;;;;;5281493;28;20022;-69
2022/04/10 04:14:07;;;;;;;12.38;7.28;;;;;;;;;;5281743;28;20048;-69
2022/04/10 04:16:39;;;;;;;13.57;6.97;;;;;;;;;;5280235;28;20024;-69
2022/04/10 04:19:10;;;;;;;14.13;7.27;;;;;;;;;;5281637;28;20040;-68
2022/04/10 04:21:42;;;;;;;11.47;6.60;;;;;;;;;;5281414;28;20024;-68
2022/04/10 04:24:13;;;;;;;8.53;5.90;;;;;;;;;;5280944;28;20039;-69
2022/04/10 04:26:44;;;;;;;13.43;5.80;;;;;;;;;;5281250;28;20017;-69
2022/04/10 04:29:15;;;;;;;11.77;5.72;;;;;;;;;;5281574;28;20024;-69
2022/04/10 04:31:46;;;;;;;11.43;6.18;;;;;;;;;;5280558;28;20363;-67
2022/04/10 04:34:17;;;;;;;12.10;6.70;;;;;;;;;;5281638;28;20025;-68
2022/04/10 04:36:49;;;;;;;11.48;6.32;;;;;;;;;;5280265;28;20037;-68
2022/04/10 04:39:20;;;;;;;11.83;6.60;;;;;;;;;;5281211;28;20035;-68
2022/04/10 04:41:51;;;;;;;10.07;6.30;;;;;;;;;;5281122;28;20020;-68
2022/04/10 04:44:23;;;;;;;11.97;5.80;;;;;;;;;;5280277;28;20031;-69
2022/04/10 04:46:55;;;;;;;9.83;5.60;;;;;;;;;;5281403;28;20017;-68
2022/04/10 04:49:26;;;;;;;9.70;5.90;;;;;;;;;;5280560;28;20024;-68
2022/04/10 04:51:57;;;;;;;11.47;6.60;;;;;;;;;;5280444;28;20024;-68
2022/04/10 04:54:29;;;;;;;10.40;6.10;;;;;;;;;;5280490;28;20357;-68
2022/04/10 04:57:00;;;;;;;12.50;6.20;;;;;;;;;;5281132;28;20020;-68
2022/04/10 04:59:32;;;;;;;8.18;5.68;;;;;;;;;;5279791;28;20039;-69
2022/04/10 05:02:03;;;;;;;9.23;5.20;;;;;;;;;;5280872;28;20016;-69
2022/04/10 05:04:34;;;;;;;12.70;6.50;;;;;;;;;;5280081;28;20417;-69
2022/04/10 05:07:05;;;;;;;12.20;5.35;;;;;;;;;;5279980;28;20040;-68
2022/04/10 05:09:36;;;;;;;12.12;5.68;;;;;;;;;;5280365;28;20025;-69
2022/04/10 05:12:08;;;;;;;10.90;5.10;;;;;;;;;;5280303;28;20082;-69
2022/04/10 05:14:39;;;;;;;11.40;5.07;;;;;;;;;;5279951;28;20052;-68
2022/04/10 05:17:10;;;;;;;9.98;5.38;;;;;;;;;;5280898;28;20021;-69
2022/04/10 05:19:41;;;;;;;9.32;5.60;;;;;;;;;;5279990;28;20348;-69
2022/04/10 05:22:12;;;;;;;8.30;4.53;;;;;;;;;;5281409;28;20115;-69
2022/04/10 05:24:44;;;;;;;9.30;5.03;;;;;;;;;;5280652;28;20075;-70
2022/04/10 05:27:15;;;;;;;10.80;5.40;;;;;;;;;;5280093;28;20100;-70
2022/04/10 05:29:46;;;;;;;7.00;4.50;;;;;;;;;;5283268;28;20485;-69
2022/04/10 05:32:17;;;;;;;7.93;4.80;;;;;;;;;;5284833;28;20027;-70
2022/04/10 05:34:49;;;;;;;8.27;4.40;;;;;;;;;;5283433;28;20017;-70
2022/04/10 05:37:20;;;;;;;8.63;3.77;;;;;;;;;;5284451;28;20012;-70
2022/04/10 05:39:51;;;;;;;7.83;4.97;;;;;;;;;;5284258;28;20043;-70
2022/04/10 05:42:22;;;;;;;7.20;3.87;;;;;;;;;;5283044;28;20074;-70
2022/04/10 05:45:00;;;;;;;8.18;3.68;;;;;;;;;;5284685;28;20020;-70
2022/04/10 05:47:31;;;;;;;7.07;3.90;;;;;;;;;;5283164;28;20078;-70
2022/04/10 05:50:03;;;;;;;7.75;3.47;;;;;;;;;;5284233;28;20468;-69
2022/04/10 05:52:38;;;;;;;6.40;3.33;;;;;;;;;;5283287;28;20104;-69
2022/04/10 05:55:10;;;;;;;7.90;3.58;;;;;;;;;;5283667;28;20463;-69
2022/04/10 05:57:41;;;;;;;6.00;2.92;;;;;;;;;;5283894;28;20017;-69
2022/04/10 06:00:14;;;;;;;6.40;2.75;;;;;;;;;;5284270;28;20031;-69
2022/04/10 06:02:45;;;;;;;4.82;2.35;;;;;;;;;;5282913;28;20410;-70
2022/04/10 06:05:17;;;;;;;6.72;3.30;;;;;;;;;;5284141;28;20021;-69
2022/04/10 06:07:48;;;;;;;7.05;2.67;;;;;;;;;;5283728;28;20100;-69
2022/04/10 06:10:19;;;;;;;10.60;3.48;;;;;;;;;;5283063;28;20103;-69
2022/04/10 06:12:51;;;;;;;6.57;2.13;;;;;;;;;;5283694;28;20045;-70
2022/04/10 06:15:22;;;;;;;9.44;2.20;;;;;;;;;;5282726;28;20040;-70
2022/04/10 06:17:53;;;;;;;6.80;2.64;;;;;;;;;;5283879;28;20017;-69
2022/04/10 06:20:24;;;;;;;7.93;2.25;;;;;;;;;;5283334;28;20543;-70
2022/04/10 06:22:55;;;;;;;7.97;2.55;;;;;;;;;;5283083;28;20361;-70
2022/04/10 06:25:27;;;;;;;6.78;2.88;;;;;;;;;;5283279;28;20259;-70
2022/04/10 06:27:58;;;;;;;6.45;2.40;;;;;;;;;;5283751;28;20099;-70
2022/04/10 06:30:29;;;;;;;9.18;2.90;;;;;;;;;;5282601;28;20463;-70
2022/04/10 06:33:00;;;;;;;9.43;2.70;;;;;;;;;;5283655;28;20044;-70
2022/04/10 06:35:31;;;;;;;6.35;1.85;;;;;;;;;;5282981;28;20029;-69
2022/04/10 06:38:02;;;;;;;7.98;2.32;;;;;;;;;;5282789;28;20412;-70
2022/04/10 06:40:33;;;;;;;6.75;2.45;;;;;;;;;;5282626;28;20132;-69
2022/04/10 06:43:06;;;;;;;6.42;1.98;;;;;;;;;;5283449;28;20274;-69
2022/04/10 06:45:37;;;;;;;9.02;2.25;;;;;;;;;;5282126;28;20020;-70
2022/04/10 06:48:08;;;;;;;15.43;2.60;;;;;;;;;;5283394;28;20021;-70
2022/04/10 06:50:39;;;;;;;9.84;2.46;;;;;;;;;;5281921;28;20302;-70
2022/04/10 06:53:10;;;;;;;6.82;1.95;;;;;;;;;;5282884;28;20023;-70
2022/04/10 06:55:41;;;;;;;8.40;2.33;;;;;;;;;;5282409;28;20275;-70
2022/04/10 06:58:13;;;;;;;6.70;2.42;;;;;;;;;;5282062;28;20251;-70
2022/04/10 07:00:44;;;;;;;5.50;1.88;;;;;;;;;;5281849;28;20111;-70
2022/04/10 07:03:15;;;;;;;5.93;1.40;;;;;;;;;;5282680;28;20016;-70
2022/04/10 07:05:48;;;;;;;7.40;2.22;;;;;;;;;;5281390;28;20602;-70
2022/04/10 07:08:19;;;;;;;8.68;2.60;;;;;;;;;;5282320;28;20025;-70
2022/04/10 07:10:50;;;;;;;6.43;1.60;;;;;;;;;;5282491;28;20459;-70
2022/04/10 07:13:21;;;;;;;7.63;1.98;;;;;;;;;;5281130;28;20123;-71
2022/04/10 07:15:53;;;;;;;6.53;2.35;;;;;;;;;;5282583;28;20278;-71
2022/04/10 07:18:24;;;;;;;6.78;2.33;;;;;;;;;;5281263;28;20040;-71
2022/04/10 07:20:55;;;;;;;8.18;2.00;;;;;;;;;;5282607;28;20274;-70
2022/04/10 07:23:42;;;;;;;9.15;2.70;;;;;;;;;;5281721;28;20064;-70
2022/04/10 07:26:14;;;;;;;9.10;2.47;;;;;;;;;;5281562;28;20024;-70
2022/04/10 07:28:45;;;;;;;6.70;2.75;;;;;;;;;;5281676;28;20028;-70
2022/04/10 07:31:17;;;;;;;7.13;2.30;;;;;;;;;;5282366;28;20016;-70
2022/04/10 07:33:48;;;;;;;5.53;1.67;;;;;;;;;;5281071;28;20383;-70
2022/04/10 07:36:20;;;;;;;8.88;2.30;;;;;;;;;;5281975;28;20020;-70
2022/04/10 07:38:51;;;;;;;5.53;2.08;;;;;;;;;;5281436;28;20288;-70
2022/04/10 07:41:22;;;;;;;5.27;1.77;;;;;;;;;;5280991;28;20036;-71
2022/04/10 07:43:53;;;;;;;8.70;2.25;;;;;;;;;;5281759;28;20668;-70
2022/04/10 07:49:14;;;;;;;6.22;1.45;;;;;;;;;;5282182;28;20263;-70
2022/04/10 07:51:45;;;;;;;6.90;1.40;;;;;;;;;;5280833;28;20361;-70
2022/04/10 07:54:18;;;;;;;5.10;1.23;;;;;;;;;;5281321;28;20274;-70
2022/04/10 07:56:49;;;;;;;9.02;1.67;;;;;;;;;;5281735;28;20032;-70
2022/04/10 07:59:20;;;;;;;5.03;1.33;;;;;;;;;;5281717;28;20027;-70
2022/04/10 08:01:51;;;;;;;4.88;1.17;;;;;;;;;;5281031;28;20044;-69
2022/04/10 08:04:22;;;;;;;4.40;0.80;;;;;;;;;;5281197;28;20059;-70
2022/04/10 08:06:54;;;;;;;7.10;1.27;;;;;;;;;;5281666;28;20350;-70
2022/04/10 08:09:25;;;;;;;7.28;1.13;;;;;;;;;;5280115;28;20258;-70
2022/04/10 08:11:56;;;;;;;6.75;0.95;;;;;;;;;;5281678;28;20024;-68
2022/04/10 08:14:27;;;;;;;7.30;0.90;;;;;;;;;;5280803;28;20090;-68
2022/04/10 08:16:59;;;;;;;6.65;1.58;;;;;;;;;;5280841;28;20030;-71
2022/04/10 08:19:30;;;;;;;3.10;0.90;;;;;;;;;;5280671;28;20040;-68
2022/04/10 08:22:01;;;;;;;4.78;0.80;;;;;;;;;;5280982;28;20021;-68
2022/04/10 08:24:32;;;;;;;6.25;1.20;;;;;;;;;;5280959;28;20031;-70
2022/04/10 08:27:04;;;;;;;4.23;0.70;;;;;;;;;;5281313;28;20047;-69
2022/04/10 08:29:35;;;;;;;4.27;0.60;;;;;;;;;;5280014;28;20298;-71
2022/04/10 08:32:06;;;;;;;4.32;0.60;;;;;;;;;;5281620;28;20267;-71
2022/04/10 08:34:37;;;;;;;5.20;1.45;;;;;;;;;;5280634;28;20028;-71
2022/04/10 08:37:09;;;;;;;4.00;0.80;;;;;;;;;;5280561;28;20458;-71
2022/04/10 08:39:40;;;;;;;2.08;0.50;;;;;;;;;;5280637;28;20469;-72
2022/04/10 08:42:11;;;;;;;7.07;1.10;;;;;;;;;;5281482;28;20017;-72
2022/04/10 08:44:42;;;;;;;4.80;0.80;;;;;;;;;;5280044;28;20043;-71
2022/04/10 08:47:20;;;;;;;5.88;0.73;;;;;;;;;;5281600;28;20040;-71
2022/04/10 08:49:54;;;;;;;4.60;0.70;;;;;;;;;;5280361;28;20031;-70
2022/04/10 08:52:25;;;;;;;4.80;0.95;;;;;;;;;;5280928;28;20017;-69
2022/04/10 08:54:56;;;;;;;4.30;0.70;;;;;;;;;;5281340;28;20070;-70
2022/04/10 08:57:27;;;;;;;7.07;0.88;;;;;;;;;;5279971;28;20013;-69
2022/04/10 08:59:59;;;;;;;8.10;1.13;;;;;;;;;;5281099;28;20044;-70
2022/04/10 09:02:30;;;;;;;7.10;1.05;;;;;;;;;;5280615;28;20459;-70
2022/04/10 09:05:01;;;;;;;8.32;0.60;;;;;;;;;;5284343;28;20183;-70
2022/04/10 09:07:32;;;;;;;7.35;0.90;;;;;;;;;;5284508;28;20273;-69
2022/04/10 09:10:04;;;;;;;5.65;1.20;;;;;;;;;;5285120;28;20056;-69
2022/04/10 09:12:37;;;;;;;7.63;1.17;;;;;;;;;;5283520;28;20043;-70
2022/04/10 09:15:08;;;;;;;7.10;1.08;;;;;;;;;;5285383;28;20017;-71
2022/04/10 09:17:52;;;;;;;4.50;1.27;;;;;;;;;;5284640;28;20365;-70
2022/04/10 09:20:23;;;;;;;6.18;0.63;;;;;;;;;;5283565;28;20029;-70
2022/04/10 09:23:07;;;;;;;3.88;1.00;;;;;;;;;;5284812;28;20490;-70
2022/04/10 09:25:42;;;;;;;4.07;0.60;;;;;;;;;;5283405;28;20405;-70
2022/04/10 09:28:13;;;;;;;4.40;0.73;;;;;;;;;;5284678;28;20020;-70
2022/04/10 09:30:44;;;;;;;4.43;0.43;;;;;;;;;;5284075;28;20376;-70
2022/04/10 09:33:15;;;;;;;3.80;0.63;;;;;;;;;;5283730;28;20762;-70
2022/04/10 09:35:46;;;;;;;6.78;1.00;;;;;;;;;;5284140;28;20270;-71
2022/04/10 09:38:28;;;;;;;3.97;0.57;;;;;;;;;;5284685;28;20266;-71
2022/04/10 09:41:11;;;;;;;2.65;0.50;;;;;;;;;;5283900;28;20317;-70
2022/04/10 09:43:42;;;;;;;3.80;0.65;;;;;;;;;;5284025;28;20460;-71
2022/04/10 09:46:13;;;;;;;5.53;0.40;;;;;;;;;;5283729;28;20018;-71
2022/04/10 09:48:45;;;;;;;3.95;0.80;;;;;;;;;;5284068;28;20044;-71
2022/04/10 09:51:16;;;;;;;2.45;0.50;;;;;;;;;;5284361;28;20031;-70
2022/04/10 09:54:13;;;;;;;1.67;0.40;;;;;;;;;;5283158;28;20040;-70
2022/04/10 09:56:44;;;;;;;1.77;0.30;;;;;;;;;;5279660;28;20429;-71
2022/04/10 09:59:18;;;;;;;2.33;0.30;;;;;;;;;;5284350;28;20020;-70
2022/04/10 10:01:49;;;;;;;2.72;0.40;;;;;;;;;;5283198;28;20765;-70
2022/04/10 10:04:20;;;;;;;5.03;0.47;;;;;;;;;;5284119;28;20025;-71
2022/04/10 10:06:51;;;;;;;5.05;0.55;;;;;;;;;;5283666;28;20016;-71
2022/04/10 10:09:23;;;;;;;4.57;0.50;;;;;;;;;;5283032;28;20029;-71
2022/04/10 10:11:54;;;;;;;2.37;0.40;;;;;;;;;;5284086;28;20097;-70
2022/04/10 10:14:26;;;;;;;2.60;0.40;;;;;;;;;;5281678;28;20287;-70
2022/04/10 10:16:59;;;;;;;2.55;0.52;;;;;;;;;;5283442;28;20372;-70
2022/04/10 10:19:35;;;;;;;2.83;0.50;;;;;;;;;;5282681;28;20038;-69
2022/04/10 10:22:10;;;;;;;2.35;0.50;;;;;;;;;;5283259;28;20078;-69
2022/04/10 10:24:58;;;;;;;2.10;0.40;;;;;;;;;;5283303;28;20100;-69
2022/04/10 10:27:38;;;;;;;4.60;0.60;;;;;;;;;;5282596;28;20107;-71
2022/04/10 10:30:18;;;;;;;2.58;0.50;;;;;;;;;;5283386;28;20033;-70
2022/04/10 10:32:57;;;;;;;2.58;0.60;;;;;;;;;;5283700;28;20055;-69
2022/04/10 10:35:34;;;;;;;2.95;0.50;;;;;;;;;;5282329;28;20024;-69
2022/04/10 10:38:37;;;;;;;4.85;0.50;;;;;;;;;;5283728;28;20028;-69
2022/04/10 10:41:12;;;;;;;3.97;0.40;;;;;;;;;;5238846;28;20044;-69
2022/04/10 10:43:43;;;;;;;4.38;0.40;;;;;;;;;;5282134;28;20501;-69
2022/04/10 10:46:20;;;;;;;2.75;0.60;;;;;;;;;;5283368;28;20012;-69
2022/04/10 10:49:18;;;;;;;3.45;0.50;;;;;;;;;;5282938;28;20017;-69
2022/04/10 10:51:50;;;;;;;3.10;0.40;;;;;;;;;;5278429;28;20040;-69
2022/04/10 10:54:24;;;;;;;5.35;0.75;;;;;;;;;;5282789;28;20020;-69
2022/04/10 10:56:56;;;;;;;3.33;0.50;;;;;;;;;;5282413;28;20432;-69
2022/04/10 10:59:32;;;;;;;2.90;0.50;;;;;;;;;;5282761;28;20060;-69
2022/04/10 11:02:03;;;;;;;3.30;0.63;;;;;;;;;;5283263;28;20013;-69
2022/04/10 11:04:38;;;;;;;3.70;0.90;;;;;;;;;;5278257;28;20017;-69
2022/04/10 11:07:18;;;;;;;4.78;0.70;;;;;;;;;;5282176;28;20020;-69
2022/04/10 11:09:52;;;;;;;3.85;0.50;;;;;;;;;;5282385;28;20376;-69
2022/04/10 11:12:31;;;;;;;3.58;0.50;;;;;;;;;;5281243;28;20008;-69
2022/04/10 11:15:15;;;;;;;6.10;1.00;;;;;;;;;;5282718;28;20041;-69
2022/04/10 11:17:47;;;;;;;5.07;0.60;;;;;;;;;;5281066;28;20031;-69
2022/04/10 11:20:24;;;;;;;4.63;0.50;;;;;;;;;;5282291;28;20048;-69
2022/04/10 11:22:58;;;;;;;2.67;0.50;;;;;;;;;;5282560;28;20012;-70
2022/04/10 11:25:31;;;;;;;3.15;0.40;;;;;;;;;;5280162;28;20050;-70
2022/04/10 11:28:10;;;;;;;2.92;0.63;;;;;;;;;;5281585;28;20459;-68
2022/04/10 11:30:44;;;;;;;1.48;0.40;;;;;;;;;;5281842;28;20120;-69
2022/04/10 11:33:16;;;;;;;3.22;0.50;;;;;;;;;;5281710;28;20443;-68
2022/04/10 11:35:54;;;;;;;2.63;0.50;;;;;;;;;;5282037;28;20021;-68
2022/04/10 11:38:25;;;;;;;3.50;0.40;;;;;;;;;;5282370;28;20379;-70
2022/04/10 11:40:57;;;;;;;3.80;0.60;;;;;;;;;;5281293;28;20029;-69
2022/04/10 11:43:29;;;;;;;4.70;0.50;;;;;;;;;;5281321;28;20354;-69
2022/04/10 11:46:01;;;;;;;3.13;0.60;;;;;;;;;;5280925;28;20550;-69
2022/04/10 11:48:32;;;;;;;3.13;0.60;;;;;;;;;;5281762;28;20482;-68
2022/04/10 11:51:07;;;;;;;4.45;0.63;;;;;;;;;;5281972;28;20016;-68
2022/04/10 11:53:38;;;;;;;2.28;0.50;;;;;;;;;;5280526;28;20155;-68
2022/04/10 11:56:11;;;;;;;4.60;0.70;;;;;;;;;;5281506;28;20099;-69
2022/04/10 11:58:42;;;;;;;3.78;0.77;;;;;;;;;;5281179;28;20279;-70
2022/04/10 12:01:14;;;;;;;4.07;0.50;;;;;;;;;;5280997;28;20081;-69
2022/04/10 12:03:46;;;;;;;3.72;0.60;;;;;;;;;;5281341;28;20702;-69
2022/04/10 12:06:19;;;;;;;2.92;0.60;;;;;;;;;;5282076;28;20025;-69
2022/04/10 12:08:51;;;;;;;3.30;0.50;;;;;;;;;;5280979;28;20017;-70
2022/04/10 12:11:22;;;;;;;3.75;0.70;;;;;;;;;;5281306;28;20020;-69
2022/04/10 12:13:53;;;;;;;1.63;0.40;;;;;;;;;;5280954;28;20044;-69
2022/04/10 12:16:24;;;;;;;3.03;0.50;;;;;;;;;;5281166;28;20290;-69
2022/04/10 12:18:56;;;;;;;2.30;0.50;;;;;;;;;;5282026;28;20682;-69
2022/04/10 12:21:28;;;;;;;7.60;0.50;;;;;;;;;;5280448;28;20108;-69
2022/04/10 12:23:59;;;;;;;3.60;0.50;;;;;;;;;;5281785;28;20432;-69
2022/04/10 12:26:34;;;;;;;4.53;0.60;;;;;;;;;;5281048;28;20297;-69
2022/04/10 12:29:05;;;;;;;1.75;0.47;;;;;;;;;;5281291;28;20376;-69
2022/04/10 12:31:37;;;;;;;3.35;0.50;;;;;;;;;;5281439;28;20021;-70
2022/04/10 12:34:13;;;;;;;3.80;0.55;;;;;;;;;;5281416;28;20024;-69
2022/04/10 12:36:48;;;;;;;2.15;0.40;;;;;;;;;;5280333;28;20044;-69
2022/04/10 12:39:26;;;;;;;3.60;0.50;;;;;;;;;;5285650;28;20451;-70
2022/04/10 12:42:01;;;;;;;2.63;0.50;;;;;;;;;;5285130;28;20038;-69
2022/04/10 12:44:32;;;;;;;1.92;0.32;;;;;;;;;;5285344;28;20025;-69
2022/04/10 12:47:07;;;;;;;2.05;0.50;;;;;;;;;;5285825;28;20052;-69
2022/04/10 12:49:39;;;;;;;2.65;0.40;;;;;;;;;;5284480;28;20055;-69
2022/04/10 12:52:17;;;;;;;3.78;0.40;;;;;;;;;;5285884;28;20430;-69
2022/04/10 12:54:50;;;;;;;2.35;0.32;;;;;;;;;;5285452;28;20044;-69
2022/04/10 12:57:26;;;;;;;1.42;0.30;;;;;;;;;;5284403;28;20022;-70
2022/04/10 12:59:57;;;;;;;1.77;0.40;;;;;;;;;;5285560;28;20039;-69
2022/04/10 13:02:29;;;;;;;3.38;0.40;;;;;;;;;;5284896;28;20009;-69
2022/04/10 13:05:02;;;;;;;4.25;0.52;;;;;;;;;;5284850;28;20074;-69
2022/04/10 13:07:33;;;;;;;1.88;0.40;;;;;;;;;;5284790;28;20391;-69
2022/04/10 13:10:06;;;;;;;4.55;0.63;;;;;;;;;;5284495;28;20024;-69
2022/04/10 13:12:39;;;;;;;2.05;0.40;;;;;;;;;;5284685;28;20282;-70
2022/04/10 13:15:11;;;;;;;1.77;0.40;;;;;;;;;;5285383;28;20020;-69
2022/04/10 13:17:42;;;;;;;3.95;0.50;;;;;;;;;;5283796;28;20027;-69
2022/04/10 13:20:13;;;;;;;3.45;0.60;;;;;;;;;;5285297;28;20379;-69
2022/04/10 13:22:45;;;;;;;3.63;0.60;;;;;;;;;;5284324;28;20040;-71
2022/04/10 13:25:16;;;;;;;5.72;0.82;;;;;;;;;;5284450;28;20009;-70
2022/04/10 13:27:47;;;;;;;4.68;0.45;;;;;;;;;;5284454;28;20263;-70
2022/04/10 13:30:20;;;;;;;2.50;0.50;;;;;;;;;;5284777;28;20103;-69
2022/04/10 13:32:51;;;;;;;1.20;0.40;;;;;;;;;;5283778;28;20020;-69
2022/04/10 13:35:22;;;;;;;3.55;0.40;;;;;;;;;;5284117;28;20037;-69
2022/04/10 13:37:53;;;;;;;0.95;0.40;;;;;;;;;;5284953;28;20021;-69
2022/04/10 13:40:26;;;;;;;1.20;0.40;;;;;;;;;;5283190;28;20028;-69
2022/04/10 13:42:57;;;;;;;2.80;0.50;;;;;;;;;;5284570;28;20027;-69
2022/04/10 13:45:29;;;;;;;2.67;0.43;;;;;;;;;;5283222;28;20020;-70
2022/04/10 13:48:00;;;;;;;1.73;0.60;;;;;;;;;;5284449;28;20324;-69
2022/04/10 13:50:31;;;;;;;6.38;0.60;;;;;;;;;;5282935;28;20020;-69
2022/04/10 13:53:02;;;;;;;2.17;0.57;;;;;;;;;;5283119;28;20346;-69
2022/04/10 13:55:33;;;;;;;5.82;0.40;;;;;;;;;;5283662;28;20028;-69
2022/04/10 13:58:04;;;;;;;2.78;0.40;;;;;;;;;;5284319;28;20265;-69
2022/04/10 14:00:38;;;;;;;3.05;0.60;;;;;;;;;;5283098;28;20379;-69
2022/04/10 14:03:09;;;;;;;4.13;0.47;;;;;;;;;;5284393;28;20479;-69
2022/04/10 14:05:40;;;;;;;1.88;0.30;;;;;;;;;;5283643;28;20028;-69
2022/04/10 14:08:11;;;;;;;3.15;0.55;;;;;;;;;;5283561;28;20271;-69
2022/04/10 14:10:43;;;;;;;2.08;0.40;;;;;;;;;;5283504;28;20630;-69
2022/04/10 14:13:14;;;;;;;2.28;0.40;;;;;;;;;;5284708;28;20064;-69
2022/04/10 14:15:45;;;;;;;2.60;0.47;;;;;;;;;;5282802;28;20017;-69
2022/04/10 14:18:18;;;;;;;1.50;0.40;;;;;;;;;;5284341;28;20652;-69
2022/04/10 14:20:49;;;;;;;2.22;0.40;;;;;;;;;;5283084;28;20037;-70
2022/04/10 14:23:20;;;;;;;1.55;0.30;;;;;;;;;;5283530;28;20013;-70
2022/04/10 14:25:51;;;;;;;1.27;0.30;;;;;;;;;;5283836;28;20023;-69
2022/04/10 14:28:22;;;;;;;2.22;0.40;;;;;;;;;;5282601;28;20777;-69
2022/04/10 14:30:54;;;;;;;2.77;0.40;;;;;;;;;;5283924;28;20353;-69
2022/04/10 14:33:25;;;;;;;2.92;0.65;;;;;;;;;;5283096;28;20270;-69
2022/04/10 14:35:56;;;;;;;2.35;0.40;;;;;;;;;;5282804;28;20067;-69
2022/04/10 14:38:28;;;;;;;1.77;0.40;;;;;;;;;;5282944;28;20376;-69
2022/04/10 14:40:59;;;;;;;2.45;0.40;;;;;;;;;;5283779;28;20789;-68
2022/04/10 14:43:31;;;;;;;3.22;0.60;;;;;;;;;;5282471;28;20014;-68
2022/04/10 14:46:02;;;;;;;3.40;0.50;;;;;;;;;;5283297;28;20110;-68
2022/04/10 14:48:33;;;;;;;2.30;0.40;;;;;;;;;;5281989;28;20548;-69
2022/04/10 14:51:05;;;;;;;2.43;0.57;;;;;;;;;;5283616;28;20487;-68
2022/04/10 14:53:36;;;;;;;2.72;0.50;;;;;;;;;;5282916;28;20629;-69
2022/04/10 14:56:08;;;;;;;2.10;0.40;;;;;;;;;;5282449;28;20024;-69
2022/04/10 14:58:39;;;;;;;1.65;0.50;;;;;;;;;;5282342;28;20405;-69
2022/04/10 15:01:10;;;;;;;4.05;1.05;;;;;;;;;;5283425;28;20026;-68
2022/04/10 15:03:41;;;;;;;1.02;0.40;;;;;;;;;;5282167;28;20039;-69
2022/04/10 15:06:13;;;;;;;2.30;0.60;;;;;;;;;;5283155;28;20271;-69
2022/04/10 15:08:44;;;;;;;1.35;0.40;;;;;;;;;;5282204;28;20021;-69
2022/04/10 15:11:15;;;;;;;3.63;0.50;;;;;;;;;;5282136;28;20475;-69